sensor_id;sensor_type;location;lat;lon;timestamp;P1;durP1;ratioP1;P2;durP2;ratioP2
34102;SDS011;20381;54.498;18.206;2022-12-18T00:00:54;42.93;;;20.97;;
34102;SDS011;20381;54.498;18.206;2022-12-18T00:03:23;43.52;;;21.97;;
34102;SDS011;20381;54.498;18.206;2022-12-18T00:05:50;39.55;;;20.50;;
34102;SDS011;20381;54.498;18.206;2022-12-18T00:08:17;43.05;;;21.70;;
34102;SDS011;20381;54.498;18.206;2022-12-18T00:10:45;44.73;;;21.95;;
34102;SDS011;20381;54.498;18.206;2022-12-18T00:13:12;45.03;;;21.65;;
34102;SDS011;20381;54.498;18.206;2022-12-18T00:15:38;43.55;;;21.35;;
34102;SDS011;20381;54.498;18.206;2022-12-18T00:18:05;46.68;;;22.48;;
34102;SDS011;20381;54.498;18.206;2022-12-18T00:20:35;48.23;;;22.82;;
34102;SDS011;20381;54.498;18.206;2022-12-18T00:23:05;46.68;;;22.00;;
34102;SDS011;20381;54.498;18.206;2022-12-18T00:25:42;44.45;;;21.57;;
34102;SDS011;20381;54.498;18.206;2022-12-18T00:28:12;45.95;;;22.80;;
34102;SDS011;20381;54.498;18.206;2022-12-18T00:30:40;46.40;;;19.42;;
34102;SDS011;20381;54.498;18.206;2022-12-18T00:33:07;48.10;;;21.77;;
34102;SDS011;20381;54.498;18.206;2022-12-18T00:35:33;38.88;;;19.98;;
34102;SDS011;20381;54.498;18.206;2022-12-18T00:38:02;35.95;;;19.90;;
34102;SDS011;20381;54.498;18.206;2022-12-18T00:40:53;40.80;;;20.72;;
34102;SDS011;20381;54.498;18.206;2022-12-18T00:43:16;43.23;;;20.62;;
34102;SDS011;20381;54.498;18.206;2022-12-18T00:45:47;43.03;;;21.03;;
34102;SDS011;20381;54.498;18.206;2022-12-18T00:48:13;40.63;;;20.77;;
34102;SDS011;20381;54.498;18.206;2022-12-18T00:51:00;43.58;;;20.48;;
34102;SDS011;20381;54.498;18.206;2022-12-18T00:53:26;41.90;;;19.77;;
34102;SDS011;20381;54.498;18.206;2022-12-18T00:56:00;43.90;;;20.77;;
34102;SDS011;20381;54.498;18.206;2022-12-18T00:58:27;37.37;;;16.73;;
34102;SDS011;20381;54.498;18.206;2022-12-18T01:00:59;33.95;;;17.87;;
34102;SDS011;20381;54.498;18.206;2022-12-18T01:03:26;39.80;;;20.12;;
34102;SDS011;20381;54.498;18.206;2022-12-18T01:05:56;41.58;;;19.80;;
34102;SDS011;20381;54.498;18.206;2022-12-18T01:08:34;37.78;;;20.50;;
34102;SDS011;20381;54.498;18.206;2022-12-18T01:11:01;42.60;;;20.82;;
34102;SDS011;20381;54.498;18.206;2022-12-18T01:13:35;37.90;;;19.98;;
34102;SDS011;20381;54.498;18.206;2022-12-18T01:16:03;44.40;;;21.62;;
34102;SDS011;20381;54.498;18.206;2022-12-18T01:18:41;37.35;;;19.62;;
34102;SDS011;20381;54.498;18.206;2022-12-18T01:21:09;38.63;;;19.87;;
34102;SDS011;20381;54.498;18.206;2022-12-18T01:23:38;44.03;;;21.15;;
34102;SDS011;20381;54.498;18.206;2022-12-18T01:26:07;39.30;;;20.32;;
34102;SDS011;20381;54.498;18.206;2022-12-18T01:31:27;45.20;;;20.02;;
34102;SDS011;20381;54.498;18.206;2022-12-18T01:33:57;44.35;;;20.62;;
34102;SDS011;20381;54.498;18.206;2022-12-18T01:36:31;42.93;;;22.20;;
34102;SDS011;20381;54.498;18.206;2022-12-18T01:39:02;43.25;;;21.73;;
34102;SDS011;20381;54.498;18.206;2022-12-18T01:41:33;34.67;;;19.20;;
34102;SDS011;20381;54.498;18.206;2022-12-18T01:52:42;38.78;;;19.42;;
34102;SDS011;20381;54.498;18.206;2022-12-18T01:55:26;34.48;;;17.98;;
34102;SDS011;20381;54.498;18.206;2022-12-18T01:57:52;43.50;;;21.82;;
34102;SDS011;20381;54.498;18.206;2022-12-18T02:00:23;38.70;;;19.98;;
34102;SDS011;20381;54.498;18.206;2022-12-18T02:02:52;39.60;;;19.75;;
34102;SDS011;20381;54.498;18.206;2022-12-18T02:05:23;35.98;;;19.37;;
34102;SDS011;20381;54.498;18.206;2022-12-18T02:08:16;36.65;;;19.80;;
34102;SDS011;20381;54.498;18.206;2022-12-18T02:11:10;37.53;;;20.85;;
34102;SDS011;20381;54.498;18.206;2022-12-18T02:20:01;37.23;;;18.12;;
34102;SDS011;20381;54.498;18.206;2022-12-18T02:28:12;33.15;;;18.98;;
34102;SDS011;20381;54.498;18.206;2022-12-18T02:30:41;31.52;;;18.57;;
34102;SDS011;20381;54.498;18.206;2022-12-18T02:33:12;35.88;;;18.92;;
34102;SDS011;20381;54.498;18.206;2022-12-18T02:35:41;36.73;;;17.65;;
34102;SDS011;20381;54.498;18.206;2022-12-18T02:38:10;34.40;;;18.80;;
34102;SDS011;20381;54.498;18.206;2022-12-18T02:40:38;32.63;;;17.85;;
34102;SDS011;20381;54.498;18.206;2022-12-18T02:43:07;31.82;;;17.00;;
34102;SDS011;20381;54.498;18.206;2022-12-18T02:45:45;33.48;;;18.65;;
34102;SDS011;20381;54.498;18.206;2022-12-18T02:48:22;26.87;;;15.15;;
34102;SDS011;20381;54.498;18.206;2022-12-18T02:51:04;32.10;;;17.07;;
34102;SDS011;20381;54.498;18.206;2022-12-18T02:53:45;31.68;;;16.45;;
34102;SDS011;20381;54.498;18.206;2022-12-18T02:56:18;31.12;;;17.20;;
34102;SDS011;20381;54.498;18.206;2022-12-18T02:59:00;33.08;;;16.23;;
34102;SDS011;20381;54.498;18.206;2022-12-18T03:01:46;30.82;;;16.07;;
34102;SDS011;20381;54.498;18.206;2022-12-18T03:04:50;25.55;;;15.10;;
34102;SDS011;20381;54.498;18.206;2022-12-18T03:07:40;33.18;;;15.98;;
34102;SDS011;20381;54.498;18.206;2022-12-18T03:09:58;28.07;;;14.58;;
34102;SDS011;20381;54.498;18.206;2022-12-18T03:12:34;25.48;;;14.68;;
34102;SDS011;20381;54.498;18.206;2022-12-18T03:15:06;26.27;;;14.43;;
34102;SDS011;20381;54.498;18.206;2022-12-18T03:17:56;34.60;;;15.20;;
34102;SDS011;20381;54.498;18.206;2022-12-18T03:20:33;25.02;;;13.62;;
34102;SDS011;20381;54.498;18.206;2022-12-18T03:23:09;23.98;;;13.58;;
34102;SDS011;20381;54.498;18.206;2022-12-18T03:25:40;24.92;;;13.85;;
34102;SDS011;20381;54.498;18.206;2022-12-18T03:28:12;25.62;;;13.72;;
34102;SDS011;20381;54.498;18.206;2022-12-18T03:30:45;26.02;;;14.93;;
34102;SDS011;20381;54.498;18.206;2022-12-18T03:33:23;25.90;;;13.00;;
34102;SDS011;20381;54.498;18.206;2022-12-18T03:35:56;24.95;;;14.43;;
34102;SDS011;20381;54.498;18.206;2022-12-18T03:38:22;24.57;;;14.77;;
34102;SDS011;20381;54.498;18.206;2022-12-18T03:47:14;24.15;;;12.82;;
34102;SDS011;20381;54.498;18.206;2022-12-18T03:49:18;20.37;;;12.03;;
34102;SDS011;20381;54.498;18.206;2022-12-18T03:52:06;22.60;;;13.05;;
34102;SDS011;20381;54.498;18.206;2022-12-18T03:54:32;24.95;;;13.25;;
34102;SDS011;20381;54.498;18.206;2022-12-18T03:57:04;24.18;;;12.47;;
34102;SDS011;20381;54.498;18.206;2022-12-18T03:59:39;20.23;;;11.22;;
34102;SDS011;20381;54.498;18.206;2022-12-18T04:02:07;19.35;;;11.75;;
34102;SDS011;20381;54.498;18.206;2022-12-18T04:04:38;21.48;;;11.85;;
34102;SDS011;20381;54.498;18.206;2022-12-18T04:07:06;20.25;;;11.85;;
34102;SDS011;20381;54.498;18.206;2022-12-18T04:09:34;21.37;;;11.33;;
34102;SDS011;20381;54.498;18.206;2022-12-18T04:12:04;22.00;;;12.07;;
34102;SDS011;20381;54.498;18.206;2022-12-18T04:14:31;20.52;;;11.43;;
34102;SDS011;20381;54.498;18.206;2022-12-18T04:16:59;19.90;;;11.63;;
34102;SDS011;20381;54.498;18.206;2022-12-18T04:19:26;19.40;;;11.20;;
34102;SDS011;20381;54.498;18.206;2022-12-18T04:21:52;22.30;;;12.03;;
34102;SDS011;20381;54.498;18.206;2022-12-18T04:24:19;23.20;;;11.85;;
34102;SDS011;20381;54.498;18.206;2022-12-18T04:26:48;20.27;;;11.78;;
34102;SDS011;20381;54.498;18.206;2022-12-18T04:29:16;24.52;;;13.45;;
34102;SDS011;20381;54.498;18.206;2022-12-18T04:31:43;22.15;;;12.18;;
34102;SDS011;20381;54.498;18.206;2022-12-18T04:34:14;18.23;;;11.20;;
34102;SDS011;20381;54.498;18.206;2022-12-18T04:36:40;22.47;;;12.63;;
34102;SDS011;20381;54.498;18.206;2022-12-18T04:39:09;25.48;;;12.93;;
34102;SDS011;20381;54.498;18.206;2022-12-18T04:41:35;20.90;;;12.68;;
34102;SDS011;20381;54.498;18.206;2022-12-18T04:44:02;21.20;;;11.53;;
34102;SDS011;20381;54.498;18.206;2022-12-18T04:46:29;19.27;;;11.43;;
34102;SDS011;20381;54.498;18.206;2022-12-18T04:49:00;18.05;;;11.35;;
34102;SDS011;20381;54.498;18.206;2022-12-18T04:51:24;22.65;;;12.23;;
34102;SDS011;20381;54.498;18.206;2022-12-18T04:53:51;18.75;;;10.85;;
34102;SDS011;20381;54.498;18.206;2022-12-18T04:56:18;22.98;;;12.18;;
34102;SDS011;20381;54.498;18.206;2022-12-18T04:58:47;18.27;;;11.27;;
34102;SDS011;20381;54.498;18.206;2022-12-18T05:01:18;18.20;;;10.78;;
34102;SDS011;20381;54.498;18.206;2022-12-18T05:03:45;19.40;;;10.55;;
34102;SDS011;20381;54.498;18.206;2022-12-18T05:06:11;20.17;;;11.57;;
34102;SDS011;20381;54.498;18.206;2022-12-18T05:08:38;18.30;;;10.93;;
34102;SDS011;20381;54.498;18.206;2022-12-18T05:11:14;19.30;;;10.93;;
34102;SDS011;20381;54.498;18.206;2022-12-18T05:13:41;19.62;;;10.72;;
34102;SDS011;20381;54.498;18.206;2022-12-18T05:16:23;18.57;;;10.90;;
34102;SDS011;20381;54.498;18.206;2022-12-18T05:18:45;21.93;;;12.03;;
34102;SDS011;20381;54.498;18.206;2022-12-18T05:21:15;21.57;;;11.15;;
34102;SDS011;20381;54.498;18.206;2022-12-18T05:23:42;26.23;;;12.43;;
34102;SDS011;20381;54.498;18.206;2022-12-18T05:26:08;24.12;;;12.30;;
34102;SDS011;20381;54.498;18.206;2022-12-18T05:28:38;20.15;;;12.25;;
34102;SDS011;20381;54.498;18.206;2022-12-18T05:31:05;22.90;;;12.73;;
34102;SDS011;20381;54.498;18.206;2022-12-18T05:33:32;19.10;;;10.93;;
34102;SDS011;20381;54.498;18.206;2022-12-18T05:36:01;19.77;;;11.38;;
34102;SDS011;20381;54.498;18.206;2022-12-18T05:38:31;17.02;;;9.80;;
34102;SDS011;20381;54.498;18.206;2022-12-18T05:41:00;20.55;;;9.38;;
34102;SDS011;20381;54.498;18.206;2022-12-18T05:43:28;16.00;;;9.23;;
34102;SDS011;20381;54.498;18.206;2022-12-18T05:45:55;17.82;;;10.40;;
34102;SDS011;20381;54.498;18.206;2022-12-18T05:50:49;19.32;;;9.48;;
34102;SDS011;20381;54.498;18.206;2022-12-18T05:53:19;18.70;;;11.25;;
34102;SDS011;20381;54.498;18.206;2022-12-18T05:55:46;18.32;;;10.95;;
34102;SDS011;20381;54.498;18.206;2022-12-18T05:58:15;19.73;;;10.43;;
34102;SDS011;20381;54.498;18.206;2022-12-18T06:00:45;16.57;;;9.58;;
34102;SDS011;20381;54.498;18.206;2022-12-18T06:03:12;15.20;;;9.40;;
34102;SDS011;20381;54.498;18.206;2022-12-18T06:05:42;17.95;;;11.10;;
34102;SDS011;20381;54.498;18.206;2022-12-18T06:10:52;18.30;;;11.12;;
34102;SDS011;20381;54.498;18.206;2022-12-18T06:13:19;18.82;;;10.55;;
34102;SDS011;20381;54.498;18.206;2022-12-18T06:15:49;18.73;;;10.60;;
34102;SDS011;20381;54.498;18.206;2022-12-18T06:18:16;16.97;;;10.47;;
34102;SDS011;20381;54.498;18.206;2022-12-18T06:20:58;15.90;;;9.75;;
34102;SDS011;20381;54.498;18.206;2022-12-18T06:23:30;14.80;;;9.70;;
34102;SDS011;20381;54.498;18.206;2022-12-18T06:25:56;22.40;;;10.88;;
34102;SDS011;20381;54.498;18.206;2022-12-18T06:28:23;16.32;;;9.93;;
34102;SDS011;20381;54.498;18.206;2022-12-18T06:30:52;14.15;;;8.33;;
34102;SDS011;20381;54.498;18.206;2022-12-18T06:33:19;16.50;;;9.27;;
34102;SDS011;20381;54.498;18.206;2022-12-18T06:35:50;17.35;;;9.15;;
34102;SDS011;20381;54.498;18.206;2022-12-18T06:38:23;15.15;;;8.85;;
34102;SDS011;20381;54.498;18.206;2022-12-18T06:41:10;15.38;;;9.23;;
34102;SDS011;20381;54.498;18.206;2022-12-18T06:43:28;17.35;;;9.95;;
34102;SDS011;20381;54.498;18.206;2022-12-18T06:46:00;15.53;;;9.93;;
34102;SDS011;20381;54.498;18.206;2022-12-18T06:48:30;18.82;;;10.72;;
34102;SDS011;20381;54.498;18.206;2022-12-18T06:50:59;18.45;;;10.23;;
34102;SDS011;20381;54.498;18.206;2022-12-18T06:53:31;19.20;;;11.08;;
34102;SDS011;20381;54.498;18.206;2022-12-18T06:55:59;17.82;;;10.65;;
34102;SDS011;20381;54.498;18.206;2022-12-18T06:58:28;20.85;;;11.00;;
34102;SDS011;20381;54.498;18.206;2022-12-18T07:01:01;18.53;;;10.67;;
34102;SDS011;20381;54.498;18.206;2022-12-18T07:03:32;20.10;;;10.72;;
34102;SDS011;20381;54.498;18.206;2022-12-18T07:05:59;16.57;;;10.10;;
34102;SDS011;20381;54.498;18.206;2022-12-18T07:08:25;23.20;;;12.33;;
34102;SDS011;20381;54.498;18.206;2022-12-18T07:10:52;29.03;;;16.13;;
34102;SDS011;20381;54.498;18.206;2022-12-18T07:13:19;24.60;;;13.28;;
34102;SDS011;20381;54.498;18.206;2022-12-18T07:15:46;20.62;;;11.55;;
34102;SDS011;20381;54.498;18.206;2022-12-18T07:18:14;17.20;;;10.50;;
34102;SDS011;20381;54.498;18.206;2022-12-18T07:20:44;19.35;;;13.08;;
34102;SDS011;20381;54.498;18.206;2022-12-18T07:23:19;19.80;;;12.82;;
34102;SDS011;20381;54.498;18.206;2022-12-18T07:25:54;24.87;;;12.47;;
34102;SDS011;20381;54.498;18.206;2022-12-18T07:28:27;18.85;;;12.18;;
34102;SDS011;20381;54.498;18.206;2022-12-18T07:30:54;20.00;;;12.53;;
34102;SDS011;20381;54.498;18.206;2022-12-18T07:33:21;21.50;;;12.60;;
34102;SDS011;20381;54.498;18.206;2022-12-18T07:35:49;19.87;;;11.12;;
34102;SDS011;20381;54.498;18.206;2022-12-18T07:38:18;21.48;;;12.05;;
34102;SDS011;20381;54.498;18.206;2022-12-18T07:40:45;19.43;;;12.27;;
34102;SDS011;20381;54.498;18.206;2022-12-18T07:43:12;19.53;;;10.93;;
34102;SDS011;20381;54.498;18.206;2022-12-18T07:45:41;19.10;;;11.30;;
34102;SDS011;20381;54.498;18.206;2022-12-18T07:48:09;17.62;;;10.35;;
34102;SDS011;20381;54.498;18.206;2022-12-18T07:50:36;22.17;;;12.58;;
34102;SDS011;20381;54.498;18.206;2022-12-18T07:53:03;23.07;;;11.57;;
34102;SDS011;20381;54.498;18.206;2022-12-18T07:55:35;17.05;;;11.48;;
34102;SDS011;20381;54.498;18.206;2022-12-18T07:58:02;18.23;;;12.05;;
34102;SDS011;20381;54.498;18.206;2022-12-18T08:00:31;19.15;;;11.63;;
34102;SDS011;20381;54.498;18.206;2022-12-18T08:03:05;17.95;;;10.85;;
34102;SDS011;20381;54.498;18.206;2022-12-18T08:05:28;21.07;;;12.43;;
34102;SDS011;20381;54.498;18.206;2022-12-18T08:08:03;19.02;;;11.95;;
34102;SDS011;20381;54.498;18.206;2022-12-18T08:10:29;21.35;;;12.07;;
34102;SDS011;20381;54.498;18.206;2022-12-18T08:12:56;18.50;;;12.27;;
34102;SDS011;20381;54.498;18.206;2022-12-18T08:15:22;18.93;;;11.63;;
34102;SDS011;20381;54.498;18.206;2022-12-18T08:17:49;17.20;;;10.63;;
34102;SDS011;20381;54.498;18.206;2022-12-18T08:20:17;19.52;;;12.58;;
34102;SDS011;20381;54.498;18.206;2022-12-18T08:25:22;22.98;;;13.58;;
34102;SDS011;20381;54.498;18.206;2022-12-18T08:27:49;24.40;;;13.83;;
34102;SDS011;20381;54.498;18.206;2022-12-18T08:30:18;19.87;;;11.73;;
34102;SDS011;20381;54.498;18.206;2022-12-18T08:32:46;22.30;;;13.10;;
34102;SDS011;20381;54.498;18.206;2022-12-18T08:35:14;26.55;;;15.30;;
34102;SDS011;20381;54.498;18.206;2022-12-18T08:37:43;23.42;;;14.98;;
34102;SDS011;20381;54.498;18.206;2022-12-18T08:40:09;31.20;;;17.10;;
34102;SDS011;20381;54.498;18.206;2022-12-18T08:42:38;30.02;;;15.88;;
34102;SDS011;20381;54.498;18.206;2022-12-18T08:45:07;37.90;;;20.55;;
34102;SDS011;20381;54.498;18.206;2022-12-18T08:47:41;37.48;;;21.62;;
34102;SDS011;20381;54.498;18.206;2022-12-18T08:50:08;39.30;;;23.13;;
34102;SDS011;20381;54.498;18.206;2022-12-18T08:52:37;46.20;;;25.00;;
34102;SDS011;20381;54.498;18.206;2022-12-18T08:55:07;46.93;;;24.70;;
34102;SDS011;20381;54.498;18.206;2022-12-18T08:57:34;44.58;;;22.73;;
34102;SDS011;20381;54.498;18.206;2022-12-18T09:00:02;38.33;;;22.27;;
34102;SDS011;20381;54.498;18.206;2022-12-18T09:02:30;36.45;;;20.68;;
34102;SDS011;20381;54.498;18.206;2022-12-18T09:04:59;36.20;;;19.10;;
34102;SDS011;20381;54.498;18.206;2022-12-18T09:07:26;30.65;;;16.65;;
34102;SDS011;20381;54.498;18.206;2022-12-18T09:09:52;27.48;;;16.95;;
34102;SDS011;20381;54.498;18.206;2022-12-18T09:12:19;27.73;;;13.67;;
34102;SDS011;20381;54.498;18.206;2022-12-18T09:14:49;26.45;;;14.55;;
34102;SDS011;20381;54.498;18.206;2022-12-18T09:17:18;32.78;;;20.48;;
34102;SDS011;20381;54.498;18.206;2022-12-18T09:19:44;41.60;;;22.40;;
34102;SDS011;20381;54.498;18.206;2022-12-18T09:22:12;52.53;;;29.90;;
34102;SDS011;20381;54.498;18.206;2022-12-18T09:24:38;38.42;;;21.20;;
34102;SDS011;20381;54.498;18.206;2022-12-18T09:27:12;39.85;;;20.05;;
34102;SDS011;20381;54.498;18.206;2022-12-18T09:29:40;36.50;;;19.27;;
34102;SDS011;20381;54.498;18.206;2022-12-18T09:32:06;32.80;;;19.67;;
34102;SDS011;20381;54.498;18.206;2022-12-18T09:34:33;37.13;;;21.03;;
34102;SDS011;20381;54.498;18.206;2022-12-18T09:37:02;30.08;;;17.73;;
34102;SDS011;20381;54.498;18.206;2022-12-18T09:39:28;29.10;;;18.00;;
34102;SDS011;20381;54.498;18.206;2022-12-18T09:41:57;26.90;;;17.35;;
34102;SDS011;20381;54.498;18.206;2022-12-18T09:47:28;30.30;;;17.85;;
34102;SDS011;20381;54.498;18.206;2022-12-18T09:52:37;30.00;;;17.35;;
34102;SDS011;20381;54.498;18.206;2022-12-18T09:55:22;23.62;;;16.35;;
34102;SDS011;20381;54.498;18.206;2022-12-18T09:58:00;28.95;;;16.80;;
34102;SDS011;20381;54.498;18.206;2022-12-18T10:00:48;28.62;;;17.52;;
34102;SDS011;20381;54.498;18.206;2022-12-18T10:03:24;31.80;;;18.57;;
34102;SDS011;20381;54.498;18.206;2022-12-18T10:08:49;26.68;;;16.48;;
34102;SDS011;20381;54.498;18.206;2022-12-18T10:11:40;26.02;;;16.40;;
34102;SDS011;20381;54.498;18.206;2022-12-18T10:14:20;27.77;;;15.88;;
34102;SDS011;20381;54.498;18.206;2022-12-18T10:20:56;38.15;;;21.37;;
34102;SDS011;20381;54.498;18.206;2022-12-18T10:30:12;44.23;;;24.95;;
34102;SDS011;20381;54.498;18.206;2022-12-18T10:32:45;31.42;;;17.77;;
34102;SDS011;20381;54.498;18.206;2022-12-18T10:35:19;30.00;;;17.80;;
34102;SDS011;20381;54.498;18.206;2022-12-18T10:47:05;25.02;;;14.55;;
34102;SDS011;20381;54.498;18.206;2022-12-18T10:49:54;24.45;;;15.20;;
34102;SDS011;20381;54.498;18.206;2022-12-18T10:52:25;28.83;;;14.80;;
34102;SDS011;20381;54.498;18.206;2022-12-18T10:54:57;22.13;;;14.50;;
34102;SDS011;20381;54.498;18.206;2022-12-18T10:57:30;29.00;;;15.98;;
34102;SDS011;20381;54.498;18.206;2022-12-18T11:02:58;26.95;;;14.33;;
34102;SDS011;20381;54.498;18.206;2022-12-18T11:08:19;24.12;;;13.55;;
34102;SDS011;20381;54.498;18.206;2022-12-18T11:14:02;23.22;;;13.78;;
34102;SDS011;20381;54.498;18.206;2022-12-18T11:20:49;24.40;;;14.00;;
34102;SDS011;20381;54.498;18.206;2022-12-18T11:23:30;26.82;;;14.68;;
34102;SDS011;20381;54.498;18.206;2022-12-18T11:26:04;31.20;;;16.43;;
34102;SDS011;20381;54.498;18.206;2022-12-18T11:34:52;23.20;;;13.95;;
34102;SDS011;20381;54.498;18.206;2022-12-18T11:37:53;31.07;;;16.57;;
34102;SDS011;20381;54.498;18.206;2022-12-18T11:40:30;21.12;;;12.55;;
34102;SDS011;20381;54.498;18.206;2022-12-18T11:43:09;27.77;;;12.95;;
34102;SDS011;20381;54.498;18.206;2022-12-18T11:45:29;18.12;;;10.28;;
34102;SDS011;20381;54.498;18.206;2022-12-18T11:48:23;16.93;;;10.00;;
34102;SDS011;20381;54.498;18.206;2022-12-18T11:51:09;24.65;;;14.43;;
34102;SDS011;20381;54.498;18.206;2022-12-18T11:56:53;26.25;;;13.00;;
34102;SDS011;20381;54.498;18.206;2022-12-18T12:18:05;21.00;;;11.78;;
34102;SDS011;20381;54.498;18.206;2022-12-18T12:23:59;17.65;;;10.70;;
34102;SDS011;20381;54.498;18.206;2022-12-18T12:26:53;19.37;;;10.30;;
34102;SDS011;20381;54.498;18.206;2022-12-18T12:35:47;24.47;;;13.15;;
34102;SDS011;20381;54.498;18.206;2022-12-18T12:38:47;21.10;;;11.43;;
34102;SDS011;20381;54.498;18.206;2022-12-18T12:41:21;19.45;;;10.93;;
34102;SDS011;20381;54.498;18.206;2022-12-18T12:44:15;14.65;;;7.30;;
34102;SDS011;20381;54.498;18.206;2022-12-18T12:46:53;11.78;;;7.28;;
34102;SDS011;20381;54.498;18.206;2022-12-18T12:49:27;12.80;;;7.58;;
34102;SDS011;20381;54.498;18.206;2022-12-18T12:54:54;15.55;;;8.50;;
34102;SDS011;20381;54.498;18.206;2022-12-18T12:57:36;12.60;;;7.65;;
34102;SDS011;20381;54.498;18.206;2022-12-18T13:00:13;16.55;;;9.10;;
34102;SDS011;20381;54.498;18.206;2022-12-18T13:05:49;29.18;;;12.58;;
34102;SDS011;20381;54.498;18.206;2022-12-18T13:08:51;22.35;;;12.50;;
34102;SDS011;20381;54.498;18.206;2022-12-18T13:11:04;24.87;;;12.68;;
34102;SDS011;20381;54.498;18.206;2022-12-18T13:13:58;19.70;;;11.08;;
34102;SDS011;20381;54.498;18.206;2022-12-18T13:16:25;21.27;;;10.50;;
34102;SDS011;20381;54.498;18.206;2022-12-18T13:18:57;16.30;;;9.30;;
34102;SDS011;20381;54.498;18.206;2022-12-18T13:21:34;22.13;;;10.00;;
34102;SDS011;20381;54.498;18.206;2022-12-18T13:26:53;14.07;;;7.75;;
34102;SDS011;20381;54.498;18.206;2022-12-18T13:32:37;12.95;;;7.12;;
34102;SDS011;20381;54.498;18.206;2022-12-18T13:38:18;12.73;;;7.20;;
34102;SDS011;20381;54.498;18.206;2022-12-18T13:40:53;12.98;;;7.53;;
34102;SDS011;20381;54.498;18.206;2022-12-18T13:43:30;11.73;;;7.30;;
34102;SDS011;20381;54.498;18.206;2022-12-18T13:46:29;14.45;;;7.10;;
34102;SDS011;20381;54.498;18.206;2022-12-18T13:49:06;12.00;;;6.62;;
34102;SDS011;20381;54.498;18.206;2022-12-18T13:51:49;11.35;;;7.00;;
34102;SDS011;20381;54.498;18.206;2022-12-18T13:57:25;11.18;;;7.78;;
34102;SDS011;20381;54.498;18.206;2022-12-18T13:59:57;10.43;;;7.47;;
34102;SDS011;20381;54.498;18.206;2022-12-18T14:02:27;10.53;;;6.72;;
34102;SDS011;20381;54.498;18.206;2022-12-18T14:04:55;11.25;;;6.83;;
34102;SDS011;20381;54.498;18.206;2022-12-18T14:07:25;10.78;;;5.83;;
34102;SDS011;20381;54.498;18.206;2022-12-18T14:10:00;12.33;;;7.30;;
34102;SDS011;20381;54.498;18.206;2022-12-18T14:12:28;12.58;;;6.17;;
34102;SDS011;20381;54.498;18.206;2022-12-18T14:15:23;10.72;;;6.65;;
34102;SDS011;20381;54.498;18.206;2022-12-18T14:24:51;15.57;;;8.10;;
34102;SDS011;20381;54.498;18.206;2022-12-18T14:29:56;15.13;;;8.03;;
34102;SDS011;20381;54.498;18.206;2022-12-18T14:32:32;11.60;;;7.20;;
34102;SDS011;20381;54.498;18.206;2022-12-18T14:55:26;15.83;;;8.98;;
34102;SDS011;20381;54.498;18.206;2022-12-18T14:58:32;14.38;;;8.78;;
34102;SDS011;20381;54.498;18.206;2022-12-18T15:01:04;20.12;;;10.60;;
34102;SDS011;20381;54.498;18.206;2022-12-18T15:03:42;16.25;;;9.55;;
34102;SDS011;20381;54.498;18.206;2022-12-18T15:06:16;20.55;;;9.90;;
34102;SDS011;20381;54.498;18.206;2022-12-18T15:11:56;18.77;;;10.55;;
34102;SDS011;20381;54.498;18.206;2022-12-18T15:14:34;21.12;;;10.25;;
34102;SDS011;20381;54.498;18.206;2022-12-18T15:17:02;18.30;;;9.85;;
34102;SDS011;20381;54.498;18.206;2022-12-18T15:19:44;21.37;;;10.40;;
34102;SDS011;20381;54.498;18.206;2022-12-18T15:22:22;17.77;;;9.43;;
34102;SDS011;20381;54.498;18.206;2022-12-18T15:28:30;15.32;;;8.38;;
34102;SDS011;20381;54.498;18.206;2022-12-18T15:31:05;17.90;;;10.13;;
34102;SDS011;20381;54.498;18.206;2022-12-18T15:34:00;20.10;;;9.98;;
34102;SDS011;20381;54.498;18.206;2022-12-18T15:36:23;16.07;;;9.78;;
34102;SDS011;20381;54.498;18.206;2022-12-18T15:38:57;19.37;;;10.45;;
34102;SDS011;20381;54.498;18.206;2022-12-18T15:41:31;22.27;;;11.68;;
34102;SDS011;20381;54.498;18.206;2022-12-18T15:47:41;25.85;;;11.60;;
34102;SDS011;20381;54.498;18.206;2022-12-18T15:50:14;29.95;;;13.53;;
34102;SDS011;20381;54.498;18.206;2022-12-18T15:52:51;31.80;;;12.90;;
34102;SDS011;20381;54.498;18.206;2022-12-18T15:55:23;19.87;;;10.67;;
34102;SDS011;20381;54.498;18.206;2022-12-18T15:58:21;22.30;;;11.70;;
34102;SDS011;20381;54.498;18.206;2022-12-18T16:03:52;22.42;;;12.60;;
34102;SDS011;20381;54.498;18.206;2022-12-18T16:06:26;19.25;;;10.58;;
34102;SDS011;20381;54.498;18.206;2022-12-18T16:09:05;20.02;;;10.98;;
34102;SDS011;20381;54.498;18.206;2022-12-18T16:11:50;24.50;;;11.78;;
34102;SDS011;20381;54.498;18.206;2022-12-18T16:14:28;19.77;;;11.83;;
34102;SDS011;20381;54.498;18.206;2022-12-18T16:19:30;22.22;;;11.95;;
34102;SDS011;20381;54.498;18.206;2022-12-18T16:21:59;26.20;;;12.90;;
34102;SDS011;20381;54.498;18.206;2022-12-18T16:24:29;19.70;;;12.05;;
34102;SDS011;20381;54.498;18.206;2022-12-18T16:27:06;23.98;;;13.20;;
34102;SDS011;20381;54.498;18.206;2022-12-18T16:29:56;23.80;;;11.35;;
34102;SDS011;20381;54.498;18.206;2022-12-18T16:32:31;26.80;;;15.68;;
34102;SDS011;20381;54.498;18.206;2022-12-18T16:35:04;27.93;;;13.30;;
34102;SDS011;20381;54.498;18.206;2022-12-18T16:37:38;30.48;;;15.75;;
34102;SDS011;20381;54.498;18.206;2022-12-18T16:40:14;26.20;;;14.73;;
34102;SDS011;20381;54.498;18.206;2022-12-18T16:45:26;30.30;;;15.03;;
34102;SDS011;20381;54.498;18.206;2022-12-18T16:47:57;23.45;;;12.85;;
34102;SDS011;20381;54.498;18.206;2022-12-18T16:50:29;30.25;;;15.43;;
34102;SDS011;20381;54.498;18.206;2022-12-18T16:52:59;28.87;;;15.32;;
34102;SDS011;20381;54.498;18.206;2022-12-18T16:55:33;33.45;;;16.75;;
34102;SDS011;20381;54.498;18.206;2022-12-18T16:58:03;31.20;;;16.12;;
34102;SDS011;20381;54.498;18.206;2022-12-18T17:00:40;31.10;;;16.48;;
34102;SDS011;20381;54.498;18.206;2022-12-18T17:03:11;33.85;;;17.77;;
34102;SDS011;20381;54.498;18.206;2022-12-18T17:05:43;32.30;;;16.77;;
34102;SDS011;20381;54.498;18.206;2022-12-18T17:08:14;35.40;;;16.60;;
34102;SDS011;20381;54.498;18.206;2022-12-18T17:10:42;34.35;;;16.37;;
34102;SDS011;20381;54.498;18.206;2022-12-18T17:13:17;32.15;;;17.45;;
34102;SDS011;20381;54.498;18.206;2022-12-18T17:15:51;40.75;;;17.62;;
34102;SDS011;20381;54.498;18.206;2022-12-18T17:18:19;31.57;;;16.70;;
34102;SDS011;20381;54.498;18.206;2022-12-18T17:21:08;33.55;;;17.95;;
34102;SDS011;20381;54.498;18.206;2022-12-18T17:23:49;34.58;;;17.00;;
34102;SDS011;20381;54.498;18.206;2022-12-18T17:26:19;33.67;;;17.42;;
34102;SDS011;20381;54.498;18.206;2022-12-18T17:31:53;29.95;;;15.40;;
34102;SDS011;20381;54.498;18.206;2022-12-18T17:34:28;30.75;;;17.07;;
34102;SDS011;20381;54.498;18.206;2022-12-18T17:36:57;32.15;;;17.17;;
34102;SDS011;20381;54.498;18.206;2022-12-18T17:39:28;30.55;;;16.12;;
34102;SDS011;20381;54.498;18.206;2022-12-18T17:42:20;33.02;;;16.93;;
34102;SDS011;20381;54.498;18.206;2022-12-18T17:44:54;29.30;;;16.17;;
34102;SDS011;20381;54.498;18.206;2022-12-18T17:47:22;31.07;;;16.10;;